Wilsie, West Virginia
Current Conditions -  °F | °C
As of 12:35 PM on Saturday 25 Oct 2014 (Local Time) from KW22 Reporting Station
Scattered Clouds Scattered Clouds  
Wind Chill: 59°   Ceiling: Unl
Heat Index: 59°   Visibility: 10mi
Dew Point: 43°   Wind: 8mph
Humidity: 55%   Direction: 230°SW
Pressure: 29.99"   Gusts: 16mph
Location:  38.69°N, 80.89°W
Report Text: KW22 251635Z AUTO 23007G14KT 10SM SCT032 15/06 A2999 RMK AO2
Loading
Personal Weather Stations






























Interactive Weather Map New forecast layout! Learn more

10-Day Weather Forecast

Advertisements
Track Severe Weather on mobile